createdAt,value
2019-01-05T00:00:16.550Z,1027.20
2019-01-05T00:01:16.508Z,1027.21
2019-01-05T00:02:16.485Z,1027.21
2019-01-05T00:03:16.417Z,1027.22
2019-01-05T00:04:16.377Z,1027.21
2019-01-05T00:05:16.344Z,1027.22
2019-01-05T00:06:16.305Z,1027.20
2019-01-05T00:07:16.273Z,1027.21
2019-01-05T00:08:16.198Z,1027.20
2019-01-05T00:09:16.150Z,1027.10
2019-01-05T00:10:16.118Z,1027.07
2019-01-05T00:11:16.042Z,1027.08
2019-01-05T00:12:16.004Z,1027.09
2019-01-05T00:13:15.987Z,1027.14
2019-01-05T00:14:15.911Z,1027.11
2019-01-05T00:15:15.861Z,1027.15
2019-01-05T00:16:15.811Z,1027.15
2019-01-05T00:17:15.767Z,1027.14
2019-01-05T00:18:15.719Z,1027.17
2019-01-05T00:19:15.705Z,1027.10
2019-01-05T00:20:15.632Z,1027.12
2019-01-05T00:21:19.621Z,1027.14
2019-01-05T00:22:15.546Z,1027.11
2019-01-05T00:23:15.489Z,1027.08
2019-01-05T00:24:15.452Z,1027.05
2019-01-05T00:25:15.432Z,1027.04
2019-01-05T00:26:15.358Z,1027.00
2019-01-05T00:27:15.316Z,1027.00
2019-01-05T00:28:15.275Z,1026.97
2019-01-05T00:29:15.220Z,1026.93
2019-01-05T00:30:15.200Z,1026.87
2019-01-05T00:31:15.136Z,1026.90
2019-01-05T00:32:15.091Z,1026.85
2019-01-05T00:33:15.048Z,1026.90
2019-01-05T00:34:15.004Z,1026.91
2019-01-05T00:35:14.952Z,1026.95
2019-01-05T00:36:14.938Z,1026.92
2019-01-05T00:37:14.862Z,1026.91
2019-01-05T00:38:14.810Z,1026.86
2019-01-05T00:39:14.788Z,1026.90
2019-01-05T00:40:17.153Z,1026.87
2019-01-05T00:41:14.683Z,1026.83
2019-01-05T00:42:14.662Z,1026.83
2019-01-05T00:43:14.593Z,1026.86
2019-01-05T00:44:14.558Z,1026.87
2019-01-05T00:45:14.513Z,1026.93
2019-01-05T00:46:14.462Z,1026.95
2019-01-05T00:47:14.436Z,1026.94
2019-01-05T00:48:14.390Z,1026.90
2019-01-05T00:49:14.314Z,1026.84
2019-01-05T00:50:14.276Z,1026.78
2019-01-05T00:51:14.232Z,1026.78
2019-01-05T00:52:14.200Z,1026.80
2019-01-05T00:53:14.148Z,1026.81
2019-01-05T00:54:14.133Z,1026.80
2019-01-05T00:55:14.094Z,1026.76
2019-01-05T00:56:14.030Z,1026.74
2019-01-05T00:57:13.970Z,1026.79
2019-01-05T00:58:13.930Z,1026.79
2019-01-05T00:59:13.920Z,1026.77
2019-01-05T01:00:13.919Z,1026.82
2019-01-05T01:01:13.778Z,1026.85
2019-01-05T01:02:13.732Z,1026.88
2019-01-05T01:03:13.698Z,1026.90
2019-01-05T01:04:13.680Z,1026.90
2019-01-05T01:05:13.610Z,1026.88
2019-01-05T01:06:13.600Z,1026.93
2019-01-05T01:07:13.513Z,1026.88
2019-01-05T01:08:13.477Z,1026.89
2019-01-05T01:09:13.448Z,1026.90
2019-01-05T01:10:13.413Z,1026.89
2019-01-05T01:11:13.391Z,1026.89
2019-01-05T01:12:13.288Z,1026.88
2019-01-05T01:13:13.256Z,1026.88
2019-01-05T01:14:13.213Z,1026.86
2019-01-05T01:15:13.218Z,1026.91
2019-01-05T01:16:13.103Z,1026.95
2019-01-05T01:17:13.095Z,1026.94
2019-01-05T01:18:13.018Z,1026.91
2019-01-05T01:19:12.985Z,1026.90
2019-01-05T01:20:12.923Z,1026.87
2019-01-05T01:21:12.938Z,1026.87
2019-01-05T01:22:12.851Z,1026.89
2019-01-05T01:23:12.816Z,1026.89
2019-01-05T01:24:12.766Z,1026.89
2019-01-05T01:25:12.725Z,1026.83
2019-01-05T01:26:12.681Z,1026.84
2019-01-05T01:27:12.647Z,1026.84
2019-01-05T01:28:12.568Z,1026.81
2019-01-05T01:29:12.515Z,1026.84
2019-01-05T01:30:12.497Z,1026.84
2019-01-05T01:31:12.455Z,1026.83
2019-01-05T01:32:12.411Z,1026.80
2019-01-05T01:33:12.391Z,1026.86
2019-01-05T01:34:12.318Z,1026.87
2019-01-05T01:35:12.274Z,1026.85
2019-01-05T01:36:12.269Z,1026.86
2019-01-05T01:37:12.204Z,1026.83
2019-01-05T01:38:12.151Z,1026.82
2019-01-05T01:39:12.097Z,1026.83
2019-01-05T01:40:12.031Z,1026.77
2019-01-05T01:41:12.003Z,1026.77
2019-01-05T01:42:11.988Z,1026.75
2019-01-05T01:43:11.935Z,1026.77
2019-01-05T01:44:11.855Z,1026.75
2019-01-05T01:45:11.827Z,1026.70
2019-01-05T01:46:11.774Z,1026.67
2019-01-05T01:47:11.719Z,1026.70
2019-01-05T01:48:11.692Z,1026.67
2019-01-05T01:49:11.657Z,1026.69
2019-01-05T01:50:11.596Z,1026.69
2019-01-05T01:51:11.534Z,1026.64
2019-01-05T01:52:11.508Z,1026.65
2019-01-05T01:53:11.479Z,1026.65
2019-01-05T01:54:11.405Z,1026.63
2019-01-05T01:55:11.392Z,1026.67
2019-01-05T01:56:11.313Z,1026.66
2019-01-05T01:57:11.294Z,1026.59
2019-01-05T01:58:11.229Z,1026.62
2019-01-05T01:59:11.213Z,1026.62
2019-01-05T02:00:11.149Z,1026.62
2019-01-05T02:01:11.103Z,1026.62
2019-01-05T02:02:11.033Z,1026.56
2019-01-05T02:03:11.005Z,1026.53
2019-01-05T02:04:10.959Z,1026.56
2019-01-05T02:05:10.935Z,1026.52
2019-01-05T02:06:10.869Z,1026.48
2019-01-05T02:07:10.826Z,1026.47
2019-01-05T02:08:10.800Z,1026.50
2019-01-05T02:09:10.757Z,1026.47
2019-01-05T02:10:10.727Z,1026.41
2019-01-05T02:11:10.641Z,1026.41
2019-01-05T02:12:10.589Z,1026.44
2019-01-05T02:13:10.577Z,1026.44
2019-01-05T02:14:10.495Z,1026.39
2019-01-05T02:15:10.473Z,1026.38
2019-01-05T02:16:10.462Z,1026.38
2019-01-05T02:17:10.394Z,1026.32
2019-01-05T02:18:10.321Z,1026.32
2019-01-05T02:19:10.266Z,1026.31
2019-01-05T02:20:10.224Z,1026.28
2019-01-05T02:21:10.207Z,1026.27
2019-01-05T02:22:10.173Z,1026.31
2019-01-05T02:23:10.091Z,1026.26
2019-01-05T02:24:10.064Z,1026.28
2019-01-05T02:25:09.996Z,1026.27
2019-01-05T02:26:09.946Z,1026.23
2019-01-05T02:27:09.907Z,1026.29
2019-01-05T02:28:09.861Z,1026.26
2019-01-05T02:29:09.817Z,1026.27
2019-01-05T02:30:09.796Z,1026.23
2019-01-05T02:31:09.722Z,1026.20
2019-01-05T02:32:09.699Z,1026.24
2019-01-05T02:33:09.633Z,1026.17
2019-01-05T02:34:09.587Z,1026.21
2019-01-05T02:35:09.622Z,1026.15
2019-01-05T02:36:09.504Z,1026.12
2019-01-05T02:37:09.447Z,1026.10
2019-01-05T02:38:09.437Z,1026.11
2019-01-05T02:39:09.366Z,1026.09
2019-01-05T02:40:09.323Z,1026.05
2019-01-05T02:41:09.275Z,1026.06
2019-01-05T02:42:09.231Z,1026.05
2019-01-05T02:43:09.181Z,1025.99
2019-01-05T02:44:09.160Z,1026.06
2019-01-05T02:45:09.100Z,1026.05
2019-01-05T02:46:09.070Z,1026.05
2019-01-05T02:47:09.006Z,1025.97
2019-01-05T02:48:08.961Z,1025.94
2019-01-05T02:49:08.916Z,1025.92
2019-01-05T02:50:08.872Z,1025.93
2019-01-05T02:51:08.845Z,1025.86
2019-01-05T02:52:08.777Z,1025.89
2019-01-05T02:53:08.737Z,1025.92
2019-01-05T02:54:08.721Z,1025.85
2019-01-05T02:55:08.637Z,1025.92
2019-01-05T02:56:08.599Z,1025.88
2019-01-05T02:57:08.549Z,1025.97
2019-01-05T02:58:08.513Z,1025.93
2019-01-05T02:59:08.467Z,1025.93
2019-01-05T03:00:08.443Z,1025.95
2019-01-05T03:01:08.377Z,1025.93
2019-01-05T03:02:08.337Z,1025.98
2019-01-05T03:03:08.281Z,1026.00
2019-01-05T03:04:08.236Z,1025.94
2019-01-05T03:05:08.216Z,1025.91
2019-01-05T03:06:08.152Z,1025.87
2019-01-05T03:07:08.110Z,1025.84
2019-01-05T03:08:08.111Z,1025.85
2019-01-05T03:09:08.010Z,1025.83
2019-01-05T03:10:07.971Z,1025.80
2019-01-05T03:11:07.929Z,1025.79
2019-01-05T03:12:07.883Z,1025.81
2019-01-05T03:13:07.840Z,1025.80
2019-01-05T03:14:07.820Z,1025.75
2019-01-05T03:15:07.742Z,1025.76
2019-01-05T03:16:07.701Z,1025.69
2019-01-05T03:17:07.654Z,1025.72
2019-01-05T03:18:07.642Z,1025.71
2019-01-05T03:19:07.576Z,1025.66
2019-01-05T03:20:07.585Z,1025.65
2019-01-05T03:21:07.492Z,1025.68
2019-01-05T03:22:07.441Z,1025.69
2019-01-05T03:23:07.402Z,1025.61
2019-01-05T03:24:07.351Z,1025.60
2019-01-05T03:25:07.343Z,1025.60
2019-01-05T03:26:07.289Z,1025.57
2019-01-05T03:27:07.213Z,1025.56
2019-01-05T03:28:07.178Z,1025.57
2019-01-05T03:29:07.128Z,1025.56
2019-01-05T03:30:07.094Z,1025.60
2019-01-05T03:31:07.083Z,1025.56
2019-01-05T03:32:06.998Z,1025.53
2019-01-05T03:33:06.992Z,1025.52
2019-01-05T03:34:06.923Z,1025.46
2019-01-05T03:35:06.865Z,1025.44
2019-01-05T03:36:06.832Z,1025.46
2019-01-05T03:37:06.801Z,1025.42
2019-01-05T03:38:06.728Z,1025.41
2019-01-05T03:39:06.682Z,1025.39
2019-01-05T03:40:06.634Z,1025.36
2019-01-05T03:41:06.578Z,1025.35
2019-01-05T03:42:06.559Z,1025.31
2019-01-05T03:43:06.521Z,1025.29
2019-01-05T03:44:06.472Z,1025.23
2019-01-05T03:45:06.402Z,1025.19
2019-01-05T03:46:06.362Z,1025.19
2019-01-05T03:47:06.371Z,1025.14
2019-01-05T03:48:06.269Z,1025.17
2019-01-05T03:49:06.241Z,1025.20
2019-01-05T03:50:06.173Z,1025.20
2019-01-05T03:51:06.159Z,1025.13
2019-01-05T03:52:06.091Z,1025.14
2019-01-05T03:53:06.063Z,1025.13
2019-01-05T03:54:05.998Z,1025.16
2019-01-05T03:55:05.973Z,1025.21
2019-01-05T03:56:05.906Z,1025.21
2019-01-05T03:57:05.894Z,1025.22
2019-01-05T03:58:05.823Z,1025.21
2019-01-05T03:59:05.772Z,1025.25
2019-01-05T04:00:05.724Z,1025.19
2019-01-05T04:01:05.682Z,1025.19
2019-01-05T04:02:05.661Z,1025.22
2019-01-05T04:03:14.963Z,1025.20
2019-01-05T04:04:05.579Z,1025.17
2019-01-05T04:05:05.503Z,1025.16
2019-01-05T04:06:05.454Z,1025.16
2019-01-05T04:07:05.414Z,1025.12
2019-01-05T04:08:05.364Z,1025.14
2019-01-05T04:09:05.327Z,1025.08
2019-01-05T04:10:05.312Z,1025.05
2019-01-05T04:11:05.233Z,1025.10
2019-01-05T04:12:05.187Z,1025.06
2019-01-05T04:13:05.148Z,1025.03
2019-01-05T04:14:05.104Z,1025.02
2019-01-05T04:15:05.064Z,1024.95
2019-01-05T04:16:05.040Z,1024.98
2019-01-05T04:17:04.962Z,1024.87
2019-01-05T04:18:04.943Z,1024.86
2019-01-05T04:19:04.875Z,1024.87
2019-01-05T04:20:04.835Z,1024.81
2019-01-05T04:21:04.791Z,1024.82
2019-01-05T04:22:04.748Z,1024.79
2019-01-05T04:23:04.707Z,1024.84
2019-01-05T04:24:04.690Z,1024.83
2019-01-05T04:25:04.614Z,1024.78
2019-01-05T04:26:04.563Z,1024.70
2019-01-05T04:27:04.537Z,1024.71
2019-01-05T04:28:04.522Z,1024.66
2019-01-05T04:29:04.447Z,1024.63
2019-01-05T04:30:04.387Z,1024.64
2019-01-05T04:31:04.341Z,1024.67
2019-01-05T04:32:04.299Z,1024.63
2019-01-05T04:33:04.273Z,1024.63
2019-01-05T04:34:04.277Z,1024.63
2019-01-05T04:35:04.179Z,1024.61
2019-01-05T04:36:04.142Z,1024.64
2019-01-05T04:37:04.099Z,1024.60
2019-01-05T04:38:04.052Z,1024.57
2019-01-05T04:39:04.046Z,1024.53
2019-01-05T04:40:03.983Z,1024.63
2019-01-05T04:41:03.906Z,1024.61
2019-01-05T04:42:03.861Z,1024.57
2019-01-05T04:43:03.809Z,1024.57
2019-01-05T04:44:03.791Z,1024.59
2019-01-05T04:45:03.720Z,1024.56
2019-01-05T04:46:03.678Z,1024.56
2019-01-05T04:47:03.634Z,1024.50
2019-01-05T04:48:03.585Z,1024.53
2019-01-05T04:49:03.543Z,1024.49
2019-01-05T04:50:03.522Z,1024.53
2019-01-05T04:51:03.448Z,1024.43
2019-01-05T04:52:03.402Z,1024.43
2019-01-05T04:53:03.364Z,1024.41
2019-01-05T04:54:03.332Z,1024.35
2019-01-05T04:55:03.280Z,1024.35
2019-01-05T04:56:03.261Z,1024.34
2019-01-05T04:57:03.198Z,1024.37
2019-01-05T04:58:03.134Z,1024.30
2019-01-05T04:59:03.126Z,1024.30
2019-01-05T05:00:03.061Z,1024.29
2019-01-05T05:01:03.002Z,1024.31
2019-01-05T05:02:02.993Z,1024.35
2019-01-05T05:03:02.912Z,1024.31
2019-01-05T05:04:02.867Z,1024.28
2019-01-05T05:05:02.838Z,1024.28
2019-01-05T05:06:02.785Z,1024.30
2019-01-05T05:07:02.739Z,1024.27
2019-01-05T05:08:02.758Z,1024.30
2019-01-05T05:09:02.677Z,1024.31
2019-01-05T05:10:02.650Z,1024.27
2019-01-05T05:11:02.561Z,1024.25
2019-01-05T05:12:02.520Z,1024.34
2019-01-05T05:13:02.494Z,1024.29
2019-01-05T05:14:02.472Z,1024.26
2019-01-05T05:15:02.398Z,1024.29
2019-01-05T05:16:02.371Z,1024.28
2019-01-05T05:17:02.321Z,1024.26
2019-01-05T05:18:02.304Z,1024.19
2019-01-05T05:19:02.215Z,1024.22
2019-01-05T05:20:02.177Z,1024.19
2019-01-05T05:21:02.114Z,1024.20
2019-01-05T05:22:02.068Z,1024.17
2019-01-05T05:23:02.027Z,1024.18
2019-01-05T05:24:02.011Z,1024.16
2019-01-05T05:25:01.965Z,1024.16
2019-01-05T05:26:02.000Z,1024.17
2019-01-05T05:27:01.877Z,1024.13
2019-01-05T05:28:01.827Z,1024.12
2019-01-05T05:29:01.782Z,1024.06
2019-01-05T05:30:01.771Z,1024.06
2019-01-05T05:31:01.704Z,1024.08
2019-01-05T05:32:01.646Z,1024.08
2019-01-05T05:33:01.608Z,1024.12
2019-01-05T05:34:01.548Z,1024.11
2019-01-05T05:35:01.525Z,1024.09
2019-01-05T05:36:01.485Z,1024.06
2019-01-05T05:37:01.434Z,1024.13
2019-01-05T05:38:01.391Z,1024.10
2019-01-05T05:39:01.346Z,1024.11
2019-01-05T05:40:01.287Z,1024.13
2019-01-05T05:41:01.255Z,1024.15
2019-01-05T05:42:01.295Z,1024.14
2019-01-05T05:43:01.150Z,1024.17
2019-01-05T05:44:01.119Z,1024.14
2019-01-05T05:45:01.071Z,1024.22
2019-01-05T05:46:01.024Z,1024.23
2019-01-05T05:47:00.958Z,1024.22
2019-01-05T05:48:00.933Z,1024.22
2019-01-05T05:49:00.880Z,1024.23
2019-01-05T05:50:00.831Z,1024.26
2019-01-05T05:51:00.791Z,1024.25
2019-01-05T05:52:00.782Z,1024.27
2019-01-05T05:53:00.742Z,1024.21
2019-01-05T05:54:00.677Z,1024.28
2019-01-05T05:55:00.629Z,1024.26
2019-01-05T05:56:00.597Z,1024.25
2019-01-05T05:57:00.546Z,1024.26
2019-01-05T05:58:00.487Z,1024.25
2019-01-05T05:59:00.500Z,1024.21
2019-01-05T06:00:00.441Z,1024.19
2019-01-05T06:01:00.361Z,1024.13
2019-01-05T06:02:00.311Z,1024.20
2019-01-05T06:03:00.258Z,1024.21
2019-01-05T06:04:00.269Z,1024.20
2019-01-05T06:05:00.195Z,1024.23
2019-01-05T06:06:00.137Z,1024.19
2019-01-05T06:07:00.134Z,1024.22
2019-01-05T06:08:00.028Z,1024.24
2019-01-05T06:09:00.012Z,1024.23
2019-01-05T06:09:59.990Z,1024.23
2019-01-05T06:10:59.955Z,1024.17
2019-01-05T06:11:59.855Z,1024.12
2019-01-05T06:12:59.840Z,1024.18
2019-01-05T06:13:59.789Z,1024.15
2019-01-05T06:14:59.759Z,1024.13
2019-01-05T06:15:59.714Z,1024.16
2019-01-05T06:16:59.661Z,1024.14
2019-01-05T06:17:59.621Z,1024.17
2019-01-05T06:18:59.613Z,1024.16
2019-01-05T06:19:59.519Z,1024.12
2019-01-05T06:20:59.540Z,1024.08
2019-01-05T06:21:59.433Z,1024.15
2019-01-05T06:22:59.403Z,1024.14
2019-01-05T06:23:59.332Z,1024.14
2019-01-05T06:24:59.299Z,1024.17
2019-01-05T06:25:59.280Z,1024.14
2019-01-05T06:26:59.203Z,1024.10
2019-01-05T06:27:59.166Z,1024.16
2019-01-05T06:28:59.122Z,1024.17
2019-01-05T06:29:59.081Z,1024.13
2019-01-05T06:30:59.045Z,1024.10
2019-01-05T06:31:59.018Z,1024.11
2019-01-05T06:32:58.985Z,1024.09
2019-01-05T06:33:58.897Z,1024.13
2019-01-05T06:34:58.859Z,1024.15
2019-01-05T06:35:58.792Z,1024.13
2019-01-05T06:36:58.744Z,1024.18
2019-01-05T06:37:58.723Z,1024.15
2019-01-05T06:38:58.660Z,1024.20
2019-01-05T06:39:58.610Z,1024.19
2019-01-05T06:40:58.572Z,1024.16
2019-01-05T06:41:58.562Z,1024.11
2019-01-05T06:42:58.483Z,1024.18
2019-01-05T06:43:58.435Z,1024.14
2019-01-05T06:44:58.387Z,1024.16
2019-01-05T06:45:58.350Z,1024.11
2019-01-05T06:46:58.299Z,1024.11
2019-01-05T06:47:58.280Z,1024.17
2019-01-05T06:48:58.215Z,1024.19
2019-01-05T06:49:58.175Z,1024.17
2019-01-05T06:50:58.121Z,1024.13
2019-01-05T06:51:58.076Z,1024.17
2019-01-05T06:52:58.065Z,1024.20
2019-01-05T06:53:58.004Z,1024.17
2019-01-05T06:54:57.958Z,1024.19
2019-01-05T06:55:57.925Z,1024.24
2019-01-05T06:56:57.890Z,1024.19
2019-01-05T06:57:57.871Z,1024.18
2019-01-05T06:58:57.796Z,1024.22
2019-01-05T06:59:57.731Z,1024.24
2019-01-05T07:00:57.695Z,1024.20
2019-01-05T07:01:57.666Z,1024.30
2019-01-05T07:02:57.620Z,1024.25
2019-01-05T07:03:57.619Z,1024.28
2019-01-05T07:04:57.541Z,1024.24
2019-01-05T07:05:57.482Z,1024.27
2019-01-05T07:06:57.485Z,1024.29
2019-01-05T07:07:57.401Z,1024.29
2019-01-05T07:08:57.394Z,1024.30
2019-01-05T07:09:57.304Z,1024.29
2019-01-05T07:10:57.278Z,1024.28
2019-01-05T07:11:57.209Z,1024.33
2019-01-05T07:12:57.167Z,1024.40
2019-01-05T07:13:57.151Z,1024.36
2019-01-05T07:14:57.091Z,1024.34
2019-01-05T07:15:57.019Z,1024.36
2019-01-05T07:16:56.998Z,1024.34
2019-01-05T07:17:56.987Z,1024.32
2019-01-05T07:18:56.931Z,1024.34
2019-01-05T07:19:56.874Z,1024.30
2019-01-05T07:20:56.796Z,1024.30
2019-01-05T07:21:56.752Z,1024.34
2019-01-05T07:22:56.717Z,1024.31
2019-01-05T07:23:56.671Z,1024.32
2019-01-05T07:24:56.650Z,1024.30
2019-01-05T07:25:56.574Z,1024.33
2019-01-05T07:26:56.535Z,1024.33
2019-01-05T07:27:56.488Z,1024.31
2019-01-05T07:28:56.472Z,1024.33
2019-01-05T07:29:56.408Z,1024.38
2019-01-05T07:30:56.391Z,1024.26
2019-01-05T07:31:56.319Z,1024.35
2019-01-05T07:32:56.269Z,1024.35
2019-01-05T07:33:56.253Z,1024.35
2019-01-05T07:34:56.179Z,1024.39
2019-01-05T07:35:56.135Z,1024.45
2019-01-05T07:36:56.100Z,1024.47
2019-01-05T07:37:56.056Z,1024.51
2019-01-05T07:38:56.004Z,1024.51
2019-01-05T07:39:55.986Z,1024.49
2019-01-05T07:40:55.921Z,1024.45
2019-01-05T07:41:55.875Z,1024.56
2019-01-05T07:42:55.831Z,1024.52
2019-01-05T07:43:55.784Z,1024.56
2019-01-05T07:44:55.737Z,1024.55
2019-01-05T07:45:55.727Z,1024.61
2019-01-05T07:46:55.649Z,1024.56
2019-01-05T07:47:55.606Z,1024.57
2019-01-05T07:48:55.570Z,1024.61
2019-01-05T07:49:55.526Z,1024.67
2019-01-05T07:50:55.484Z,1024.73
2019-01-05T07:51:55.466Z,1024.74
2019-01-05T07:52:55.386Z,1024.66
2019-01-05T07:53:55.337Z,1024.69
2019-01-05T07:54:55.303Z,1024.68
2019-01-05T07:55:55.294Z,1024.65
2019-01-05T07:56:55.206Z,1024.73
2019-01-05T07:57:55.162Z,1024.77
2019-01-05T07:58:55.122Z,1024.74
2019-01-05T07:59:55.079Z,1024.72
2019-01-05T08:00:55.064Z,1024.76
2019-01-05T08:01:55.021Z,1024.75
2019-01-05T08:02:54.952Z,1024.78
2019-01-05T08:03:54.907Z,1024.71
2019-01-05T08:04:54.855Z,1024.71
2019-01-05T08:05:54.815Z,1024.80
2019-01-05T08:06:54.824Z,1024.78
2019-01-05T08:07:54.738Z,1024.74
2019-01-05T08:08:54.721Z,1024.77
2019-01-05T08:09:54.658Z,1024.77
2019-01-05T08:10:54.595Z,1024.75
2019-01-05T08:11:54.562Z,1024.74
2019-01-05T08:12:54.552Z,1024.72
2019-01-05T08:13:54.467Z,1024.68
2019-01-05T08:14:54.426Z,1024.72
2019-01-05T08:15:54.388Z,1024.70
2019-01-05T08:16:54.344Z,1024.67
2019-01-05T08:17:54.314Z,1024.62
2019-01-05T08:18:54.267Z,1024.62
2019-01-05T08:19:54.195Z,1024.64
2019-01-05T08:20:54.168Z,1024.61
2019-01-05T08:21:54.125Z,1024.61
2019-01-05T08:22:54.078Z,1024.64
2019-01-05T08:23:54.090Z,1024.62
2019-01-05T08:24:54.008Z,1024.63
2019-01-05T08:25:53.955Z,1024.62
2019-01-05T08:26:53.913Z,1024.59
2019-01-05T08:27:53.862Z,1024.62
2019-01-05T08:28:53.815Z,1024.62
2019-01-05T08:29:53.790Z,1024.60
2019-01-05T08:30:53.725Z,1024.62
2019-01-05T08:31:53.669Z,1024.63
2019-01-05T08:32:53.626Z,1024.63
2019-01-05T08:33:53.587Z,1024.70
2019-01-05T08:34:53.541Z,1024.69
2019-01-05T08:35:53.520Z,1024.66
2019-01-05T08:36:53.445Z,1024.68
2019-01-05T08:37:53.404Z,1024.71
2019-01-05T08:38:53.366Z,1024.71
2019-01-05T08:39:53.326Z,1024.73
2019-01-05T08:40:53.305Z,1024.77
2019-01-05T08:41:53.233Z,1024.77
2019-01-05T08:42:53.198Z,1024.77
2019-01-05T08:43:53.147Z,1024.74
2019-01-05T08:44:53.104Z,1024.78
2019-01-05T08:45:53.093Z,1024.78
2019-01-05T08:46:53.016Z,1024.79
2019-01-05T08:47:52.981Z,1024.85
2019-01-05T08:48:52.935Z,1024.84
2019-01-05T08:49:52.896Z,1024.86
2019-01-05T08:50:52.850Z,1024.87
2019-01-05T08:51:52.823Z,1024.83
2019-01-05T08:52:52.751Z,1024.83
2019-01-05T08:53:52.708Z,1024.82
2019-01-05T08:54:52.668Z,1024.83
2019-01-05T08:55:56.099Z,1024.82
2019-01-05T08:56:52.606Z,1024.77
2019-01-05T08:57:52.523Z,1024.73
2019-01-05T08:58:52.492Z,1024.82
2019-01-05T08:59:52.447Z,1024.81
2019-01-05T09:00:52.400Z,1024.88
2019-01-05T09:01:52.354Z,1024.82
2019-01-05T09:02:52.333Z,1024.89
2019-01-05T09:03:52.263Z,1024.78
2019-01-05T09:04:52.225Z,1024.84
2019-01-05T09:05:52.278Z,1024.77
2019-01-05T09:06:52.202Z,1024.76
2019-01-05T09:07:52.123Z,1024.77
2019-01-05T09:08:52.162Z,1024.78
2019-01-05T09:09:52.021Z,1024.78
2019-01-05T09:10:52.023Z,1024.79
2019-01-05T09:11:51.935Z,1024.78
2019-01-05T09:12:51.892Z,1024.78
2019-01-05T09:13:51.850Z,1024.81
2019-01-05T09:14:51.811Z,1024.82
2019-01-05T09:15:51.740Z,1024.81
2019-01-05T09:16:51.722Z,1024.86
2019-01-05T09:17:51.707Z,1024.82
2019-01-05T09:18:51.645Z,1024.81
2019-01-05T09:19:51.606Z,1024.85
2019-01-05T09:20:51.525Z,1024.84
2019-01-05T09:21:51.492Z,1024.84
2019-01-05T09:22:51.438Z,1024.83
2019-01-05T09:23:51.389Z,1024.85
2019-01-05T09:24:51.376Z,1024.83
2019-01-05T09:25:51.345Z,1024.84
2019-01-05T09:26:51.276Z,1024.83
2019-01-05T09:27:51.218Z,1024.85
2019-01-05T09:28:51.187Z,1024.86
2019-01-05T09:29:51.128Z,1024.81
2019-01-05T09:30:51.159Z,1024.83
2019-01-05T09:31:51.066Z,1024.81
2019-01-05T09:32:50.995Z,1024.89
2019-01-05T09:33:50.958Z,1024.84
2019-01-05T09:34:50.908Z,1024.88
2019-01-05T09:35:50.858Z,1024.88
2019-01-05T09:36:50.825Z,1024.82
2019-01-05T09:37:50.814Z,1024.87
2019-01-05T09:38:50.735Z,1024.85
2019-01-05T09:39:50.702Z,1024.85
2019-01-05T09:40:50.656Z,1024.85
2019-01-05T09:41:50.651Z,1024.83
2019-01-05T09:42:50.557Z,1024.83
2019-01-05T09:43:50.548Z,1024.79
2019-01-05T09:44:50.477Z,1024.85
2019-01-05T09:45:50.435Z,1024.78
2019-01-05T09:46:50.386Z,1024.83
2019-01-05T09:47:50.375Z,1024.85
2019-01-05T09:48:50.328Z,1024.87
2019-01-05T09:49:50.283Z,1024.88
2019-01-05T09:50:50.229Z,1024.91
2019-01-05T09:51:50.178Z,1024.87
2019-01-05T09:52:50.134Z,1024.79
2019-01-05T09:53:50.071Z,1024.81
2019-01-05T09:54:50.050Z,1024.85
2019-01-05T09:55:50.235Z,1024.87
2019-01-05T09:56:50.009Z,1024.85
2019-01-05T09:57:49.899Z,1024.84
2019-01-05T09:58:49.866Z,1024.87
2019-01-05T09:59:49.835Z,1024.87
2019-01-05T10:00:49.791Z,1024.82
2019-01-05T10:01:49.762Z,1024.79
2019-01-05T10:02:49.716Z,1024.80
2019-01-05T10:03:49.648Z,1024.80
2019-01-05T10:04:49.644Z,1024.80
2019-01-05T10:05:49.575Z,1024.84
2019-01-05T10:06:49.506Z,1024.77
2019-01-05T10:07:49.510Z,1024.77
2019-01-05T10:08:49.417Z,1024.81
2019-01-05T10:09:49.388Z,1024.79
2019-01-05T10:10:49.351Z,1024.75
2019-01-05T10:11:49.301Z,1024.78
2019-01-05T10:12:49.253Z,1024.77
2019-01-05T10:13:49.221Z,1024.81
2019-01-05T10:14:49.155Z,1024.78
2019-01-05T10:15:49.119Z,1024.73
2019-01-05T10:16:49.080Z,1024.82
2019-01-05T10:17:49.067Z,1024.84
2019-01-05T10:18:48.972Z,1024.84
2019-01-05T10:19:48.942Z,1024.79
2019-01-05T10:20:48.898Z,1024.81
2019-01-05T10:21:48.845Z,1024.72
2019-01-05T10:22:48.810Z,1024.78
2019-01-05T10:23:48.790Z,1024.76
2019-01-05T10:24:48.738Z,1024.71
2019-01-05T10:25:48.685Z,1024.71
2019-01-05T10:26:48.700Z,1024.67
2019-01-05T10:27:48.570Z,1024.70
2019-01-05T10:28:48.558Z,1024.69
2019-01-05T10:29:48.535Z,1024.65
2019-01-05T10:30:48.500Z,1024.61
2019-01-05T10:31:48.436Z,1024.66
2019-01-05T10:32:48.393Z,1024.63
2019-01-05T10:33:48.349Z,1024.62
2019-01-05T10:34:48.286Z,1024.66
2019-01-05T10:35:48.271Z,1024.62
2019-01-05T10:36:48.184Z,1024.63
2019-01-05T10:37:48.150Z,1024.65
2019-01-05T10:38:57.547Z,1024.66
2019-01-05T10:39:57.587Z,1024.64
2019-01-05T10:40:48.023Z,1024.68
2019-01-05T10:41:47.973Z,1024.63
2019-01-05T10:42:47.912Z,1024.68
2019-01-05T10:43:47.866Z,1024.63
2019-01-05T10:44:47.884Z,1024.63
2019-01-05T10:45:47.786Z,1024.60
2019-01-05T10:46:47.774Z,1024.57
2019-01-05T10:47:47.691Z,1024.56
2019-01-05T10:48:47.661Z,1024.56
2019-01-05T10:49:47.618Z,1024.55
2019-01-05T10:50:47.570Z,1024.57
2019-01-05T10:51:47.523Z,1024.56
2019-01-05T10:52:47.506Z,1024.55
2019-01-05T10:53:47.456Z,1024.47
2019-01-05T10:54:47.387Z,1024.57
2019-01-05T10:55:47.340Z,1024.53
2019-01-05T10:56:47.301Z,1024.51
2019-01-05T10:57:47.261Z,1024.52
2019-01-05T10:58:47.249Z,1024.52
2019-01-05T10:59:47.196Z,1024.53
2019-01-05T11:00:47.125Z,1024.54
2019-01-05T11:01:47.102Z,1024.48
2019-01-05T11:02:47.044Z,1024.50
2019-01-05T11:03:47.005Z,1024.45
2019-01-05T11:04:47.058Z,1024.50
2019-01-05T11:05:46.899Z,1024.46
2019-01-05T11:06:46.881Z,1024.44
2019-01-05T11:07:46.851Z,1024.35
2019-01-05T11:08:46.806Z,1024.37
2019-01-05T11:09:46.755Z,1024.39
2019-01-05T11:10:46.697Z,1024.43
2019-01-05T11:11:46.676Z,1024.41
2019-01-05T11:12:46.631Z,1024.32
2019-01-05T11:13:46.558Z,1024.34
2019-01-05T11:14:46.511Z,1024.36
2019-01-05T11:15:46.467Z,1024.38
2019-01-05T11:16:46.441Z,1024.31
2019-01-05T11:17:46.531Z,1024.39
2019-01-05T11:18:46.386Z,1024.34
2019-01-05T11:19:46.308Z,1024.33
2019-01-05T11:20:46.336Z,1024.36
2019-01-05T11:21:46.232Z,1024.30
2019-01-05T11:22:46.196Z,1024.30
2019-01-05T11:23:46.171Z,1024.29
2019-01-05T11:24:46.079Z,1024.30
2019-01-05T11:25:46.044Z,1024.31
2019-01-05T11:26:45.999Z,1024.31
2019-01-05T11:27:46.034Z,1024.38
2019-01-05T11:28:45.903Z,1024.34
2019-01-05T11:29:45.909Z,1024.36
2019-01-05T11:30:45.824Z,1024.41
2019-01-05T11:31:45.788Z,1024.34
2019-01-05T11:32:45.834Z,1024.33
2019-01-05T11:33:45.696Z,1024.35
2019-01-05T11:34:45.701Z,1024.40
2019-01-05T11:35:45.694Z,1024.33
2019-01-05T11:36:45.556Z,1024.33
2019-01-05T11:37:45.594Z,1024.35
2019-01-05T11:38:45.463Z,1024.33
2019-01-05T11:39:45.514Z,1024.34
2019-01-05T11:40:45.544Z,1024.32
2019-01-05T11:41:45.348Z,1024.31
2019-01-05T11:42:45.297Z,1024.27
2019-01-05T11:43:45.300Z,1024.26
2019-01-05T11:44:45.193Z,1024.21
2019-01-05T11:45:45.217Z,1024.27
2019-01-05T11:46:45.143Z,1024.27
2019-01-05T11:47:45.099Z,1024.25
2019-01-05T11:48:45.030Z,1024.20
2019-01-05T11:49:45.008Z,1024.18
2019-01-05T11:50:45.007Z,1024.26
2019-01-05T11:51:44.936Z,1024.23
2019-01-05T11:52:44.861Z,1024.19
2019-01-05T11:53:44.823Z,1024.21
2019-01-05T11:54:44.781Z,1024.19
2019-01-05T11:55:44.754Z,1024.14
2019-01-05T11:56:44.725Z,1024.16
2019-01-05T11:57:44.629Z,1024.16
2019-01-05T11:58:44.613Z,1024.18
2019-01-05T11:59:44.545Z,1024.15
2019-01-05T12:00:44.513Z,1024.16
2019-01-05T12:01:44.496Z,1024.14
2019-01-05T12:02:44.436Z,1024.08
2019-01-05T12:03:44.393Z,1024.19
2019-01-05T12:04:44.343Z,1024.14